sensor_id;sensor_type;location;lat;lon;timestamp;pressure;altitude;pressure_sealevel;temperature;humidity
64025;BME280;50266;57.446;26.936;2023-02-18T00:00:14;97110.48;;;-1.49;100.0
64025;BME280;50266;57.446;26.936;2023-02-18T00:01:13;97104.71;;;-1.5;100.0
64025;BME280;50266;57.446;26.936;2023-02-18T00:02:12;97100.46;;;-1.49;100.0
64025;BME280;50266;57.446;26.936;2023-02-18T00:03:12;97095.62;;;-1.5;100.0
64025;BME280;50266;57.446;26.936;2023-02-18T00:04:12;97100.23;;;-1.49;100.0
64025;BME280;50266;57.446;26.936;2023-02-18T00:05:13;97103.64;;;-1.51;100.0
64025;BME280;50266;57.446;26.936;2023-02-18T00:06:16;97098.06;;;-1.5;100.0
64025;BME280;50266;57.446;26.936;2023-02-18T00:07:14;97088.97;;;-1.49;100.0
64025;BME280;50266;57.446;26.936;2023-02-18T00:08:14;97091.45;;;-1.52;100.0
64025;BME280;50266;57.446;26.936;2023-02-18T00:09:14;97093.45;;;-1.53;100.0
64025;BME280;50266;57.446;26.936;2023-02-18T00:10:14;97078.89;;;-1.51;100.0
64025;BME280;50266;57.446;26.936;2023-02-18T00:11:14;97083.31;;;-1.55;100.0
64025;BME280;50266;57.446;26.936;2023-02-18T00:12:14;97086.7;;;-1.52;100.0
64025;BME280;50266;57.446;26.936;2023-02-18T00:13:14;97078.31;;;-1.56;100.0
64025;BME280;50266;57.446;26.936;2023-02-18T00:14:14;97076.41;;;-1.55;100.0
64025;BME280;50266;57.446;26.936;2023-02-18T00:15:14;97070.11;;;-1.56;100.0
64025;BME280;50266;57.446;26.936;2023-02-18T00:16:14;97076.47;;;-1.57;100.0
64025;BME280;50266;57.446;26.936;2023-02-18T00:17:14;97070.83;;;-1.56;100.0
64025;BME280;50266;57.446;26.936;2023-02-18T00:18:14;97062.31;;;-1.57;100.0
64025;BME280;50266;57.446;26.936;2023-02-18T00:19:15;97063.03;;;-1.57;100.0
64025;BME280;50266;57.446;26.936;2023-02-18T00:20:14;97066.26;;;-1.58;100.0
64025;BME280;50266;57.446;26.936;2023-02-18T00:21:14;97048.26;;;-1.58;100.0
64025;BME280;50266;57.446;26.936;2023-02-18T00:22:14;97051.68;;;-1.58;100.0
64025;BME280;50266;57.446;26.936;2023-02-18T00:23:14;97049.87;;;-1.56;100.0
64025;BME280;50266;57.446;26.936;2023-02-18T00:24:14;97046.84;;;-1.57;100.0
64025;BME280;50266;57.446;26.936;2023-02-18T00:25:14;97044.8;;;-1.57;100.0
64025;BME280;50266;57.446;26.936;2023-02-18T00:26:14;97039.17;;;-1.57;100.0
64025;BME280;50266;57.446;26.936;2023-02-18T00:27:14;97033.16;;;-1.56;100.0
64025;BME280;50266;57.446;26.936;2023-02-18T00:28:14;97035.05;;;-1.57;100.0
64025;BME280;50266;57.446;26.936;2023-02-18T00:29:14;97030.06;;;-1.56;100.0
64025;BME280;50266;57.446;26.936;2023-02-18T00:30:14;97027.25;;;-1.55;100.0
64025;BME280;50266;57.446;26.936;2023-02-18T00:31:15;97025.59;;;-1.55;100.0
64025;BME280;50266;57.446;26.936;2023-02-18T00:32:14;97028.39;;;-1.55;100.0
64025;BME280;50266;57.446;26.936;2023-02-18T00:33:14;97024.61;;;-1.54;100.0
64025;BME280;50266;57.446;26.936;2023-02-18T00:34:14;97023.22;;;-1.57;100.0
64025;BME280;50266;57.446;26.936;2023-02-18T00:35:14;97014.79;;;-1.6;100.0
64025;BME280;50266;57.446;26.936;2023-02-18T00:36:16;97016.46;;;-1.61;100.0
64025;BME280;50266;57.446;26.936;2023-02-18T00:37:14;97012.44;;;-1.6;100.0
64025;BME280;50266;57.446;26.936;2023-02-18T00:38:15;97012.37;;;-1.61;100.0
64025;BME280;50266;57.446;26.936;2023-02-18T00:39:14;97012.34;;;-1.55;100.0
64025;BME280;50266;57.446;26.936;2023-02-18T00:40:14;97006.6;;;-1.61;100.0
64025;BME280;50266;57.446;26.936;2023-02-18T00:41:14;97004.78;;;-1.61;100.0
64025;BME280;50266;57.446;26.936;2023-02-18T00:42:14;97006.77;;;-1.59;100.0
64025;BME280;50266;57.446;26.936;2023-02-18T00:43:14;97007.79;;;-1.6;100.0
64025;BME280;50266;57.446;26.936;2023-02-18T00:44:14;97000.02;;;-1.62;100.0
64025;BME280;50266;57.446;26.936;2023-02-18T00:45:14;97002.77;;;-1.61;100.0
64025;BME280;50266;57.446;26.936;2023-02-18T00:46:14;96998.86;;;-1.61;100.0
64025;BME280;50266;57.446;26.936;2023-02-18T00:47:14;96993.04;;;-1.57;100.0
64025;BME280;50266;57.446;26.936;2023-02-18T00:48:14;96992.11;;;-1.61;100.0
64025;BME280;50266;57.446;26.936;2023-02-18T00:49:15;96993.72;;;-1.61;100.0
64025;BME280;50266;57.446;26.936;2023-02-18T00:50:14;96984.98;;;-1.59;100.0
64025;BME280;50266;57.446;26.936;2023-02-18T00:51:14;96984.89;;;-1.59;100.0
64025;BME280;50266;57.446;26.936;2023-02-18T00:52:14;96981.28;;;-1.59;100.0
64025;BME280;50266;57.446;26.936;2023-02-18T00:53:14;96974.64;;;-1.57;100.0
64025;BME280;50266;57.446;26.936;2023-02-18T00:54:14;96979.2;;;-1.55;100.0
64025;BME280;50266;57.446;26.936;2023-02-18T00:55:15;96971.19;;;-1.54;100.0
64025;BME280;50266;57.446;26.936;2023-02-18T00:56:15;96980.03;;;-1.53;100.0
64025;BME280;50266;57.446;26.936;2023-02-18T00:57:14;96971.03;;;-1.53;100.0
64025;BME280;50266;57.446;26.936;2023-02-18T00:58:14;96973.04;;;-1.57;100.0
64025;BME280;50266;57.446;26.936;2023-02-18T00:59:14;96963.14;;;-1.56;100.0
64025;BME280;50266;57.446;26.936;2023-02-18T01:00:15;96969.12;;;-1.58;100.0
64025;BME280;50266;57.446;26.936;2023-02-18T01:01:15;96965.83;;;-1.58;100.0
64025;BME280;50266;57.446;26.936;2023-02-18T01:02:15;96954.22;;;-1.59;100.0
64025;BME280;50266;57.446;26.936;2023-02-18T01:03:15;96957.28;;;-1.56;100.0
64025;BME280;50266;57.446;26.936;2023-02-18T01:04:15;96951.77;;;-1.57;100.0
64025;BME280;50266;57.446;26.936;2023-02-18T01:05:15;96955.16;;;-1.58;100.0
64025;BME280;50266;57.446;26.936;2023-02-18T01:06:15;96952.91;;;-1.57;100.0
64025;BME280;50266;57.446;26.936;2023-02-18T01:07:15;96942.06;;;-1.59;100.0
64025;BME280;50266;57.446;26.936;2023-02-18T01:08:16;96945.56;;;-1.61;100.0
64025;BME280;50266;57.446;26.936;2023-02-18T01:09:15;96951.8;;;-1.62;100.0
64025;BME280;50266;57.446;26.936;2023-02-18T01:10:15;96943.12;;;-1.59;100.0
64025;BME280;50266;57.446;26.936;2023-02-18T01:11:15;96932.03;;;-1.63;100.0
64025;BME280;50266;57.446;26.936;2023-02-18T01:12:15;96930.34;;;-1.59;100.0
64025;BME280;50266;57.446;26.936;2023-02-18T01:13:15;96930.24;;;-1.61;100.0
64025;BME280;50266;57.446;26.936;2023-02-18T01:14:15;96931.61;;;-1.62;100.0
64025;BME280;50266;57.446;26.936;2023-02-18T01:15:15;96918.12;;;-1.61;100.0
64025;BME280;50266;57.446;26.936;2023-02-18T01:16:15;96918.7;;;-1.63;100.0
64025;BME280;50266;57.446;26.936;2023-02-18T01:17:15;96913.34;;;-1.61;100.0
64025;BME280;50266;57.446;26.936;2023-02-18T01:18:15;96913.95;;;-1.6;100.0
64025;BME280;50266;57.446;26.936;2023-02-18T01:19:15;96919.03;;;-1.61;100.0
64025;BME280;50266;57.446;26.936;2023-02-18T01:20:15;96912.06;;;-1.59;100.0
64025;BME280;50266;57.446;26.936;2023-02-18T01:21:15;96913.53;;;-1.58;100.0
64025;BME280;50266;57.446;26.936;2023-02-18T01:22:15;96909.23;;;-1.58;100.0
64025;BME280;50266;57.446;26.936;2023-02-18T01:23:15;96905.81;;;-1.58;100.0
64025;BME280;50266;57.446;26.936;2023-02-18T01:24:15;96908.64;;;-1.6;100.0
64025;BME280;50266;57.446;26.936;2023-02-18T01:25:15;96909.53;;;-1.59;100.0
64025;BME280;50266;57.446;26.936;2023-02-18T01:26:15;96898.11;;;-1.59;100.0
64025;BME280;50266;57.446;26.936;2023-02-18T01:27:15;96895.75;;;-1.58;100.0
64025;BME280;50266;57.446;26.936;2023-02-18T01:28:15;96892.7;;;-1.57;100.0
64025;BME280;50266;57.446;26.936;2023-02-18T01:29:15;96894.47;;;-1.57;100.0
64025;BME280;50266;57.446;26.936;2023-02-18T01:30:16;96889.67;;;-1.59;100.0
64025;BME280;50266;57.446;26.936;2023-02-18T01:31:15;96886.05;;;-1.6;100.0
64025;BME280;50266;57.446;26.936;2023-02-18T01:32:15;96892.11;;;-1.59;100.0
64025;BME280;50266;57.446;26.936;2023-02-18T01:33:15;96887.77;;;-1.58;100.0
64025;BME280;50266;57.446;26.936;2023-02-18T01:34:15;96887.6;;;-1.6;100.0
64025;BME280;50266;57.446;26.936;2023-02-18T01:35:17;96887.14;;;-1.57;100.0
64025;BME280;50266;57.446;26.936;2023-02-18T01:36:15;96885.58;;;-1.59;100.0
64025;BME280;50266;57.446;26.936;2023-02-18T01:37:15;96881.02;;;-1.61;100.0
64025;BME280;50266;57.446;26.936;2023-02-18T01:38:15;96877.25;;;-1.62;100.0
64025;BME280;50266;57.446;26.936;2023-02-18T01:39:15;96878.75;;;-1.59;100.0
64025;BME280;50266;57.446;26.936;2023-02-18T01:40:17;96868.62;;;-1.62;100.0
64025;BME280;50266;57.446;26.936;2023-02-18T01:41:16;96874.81;;;-1.6;100.0
64025;BME280;50266;57.446;26.936;2023-02-18T01:42:20;96869.23;;;-1.59;100.0
64025;BME280;50266;57.446;26.936;2023-02-18T01:43:18;96868.34;;;-1.61;100.0
64025;BME280;50266;57.446;26.936;2023-02-18T01:44:20;96865.62;;;-1.63;100.0
64025;BME280;50266;57.446;26.936;2023-02-18T01:46:21;96859.86;;;-1.61;100.0
64025;BME280;50266;57.446;26.936;2023-02-18T01:47:21;96861.93;;;-1.62;100.0
64025;BME280;50266;57.446;26.936;2023-02-18T01:48:22;96856.66;;;-1.6;100.0
64025;BME280;50266;57.446;26.936;2023-02-18T01:49:32;96860.06;;;-1.64;100.0
64025;BME280;50266;57.446;26.936;2023-02-18T01:50:24;96855.63;;;-1.59;100.0
64025;BME280;50266;57.446;26.936;2023-02-18T01:51:25;96849.06;;;-1.64;100.0
64025;BME280;50266;57.446;26.936;2023-02-18T01:52:24;96851.14;;;-1.65;100.0
64025;BME280;50266;57.446;26.936;2023-02-18T01:54:29;96851.61;;;-1.62;100.0
64025;BME280;50266;57.446;26.936;2023-02-18T01:55:28;96852.05;;;-1.63;100.0
64025;BME280;50266;57.446;26.936;2023-02-18T01:56:30;96845.28;;;-1.63;100.0
64025;BME280;50266;57.446;26.936;2023-02-18T01:57:32;96844.14;;;-1.61;100.0
64025;BME280;50266;57.446;26.936;2023-02-18T01:58:30;96837.66;;;-1.61;100.0
64025;BME280;50266;57.446;26.936;2023-02-18T01:59:31;96833.75;;;-1.61;100.0
64025;BME280;50266;57.446;26.936;2023-02-18T02:00:30;96838.94;;;-1.61;100.0
64025;BME280;50266;57.446;26.936;2023-02-18T02:01:30;96832.55;;;-1.61;100.0
64025;BME280;50266;57.446;26.936;2023-02-18T02:02:30;96827.15;;;-1.61;100.0
64025;BME280;50266;57.446;26.936;2023-02-18T02:03:30;96834.36;;;-1.6;100.0
64025;BME280;50266;57.446;26.936;2023-02-18T02:04:30;96830.84;;;-1.64;100.0
64025;BME280;50266;57.446;26.936;2023-02-18T02:05:31;96826.89;;;-1.63;100.0
64025;BME280;50266;57.446;26.936;2023-02-18T02:06:30;96832.23;;;-1.64;100.0
64025;BME280;50266;57.446;26.936;2023-02-18T02:07:30;96820.45;;;-1.62;100.0
64025;BME280;50266;57.446;26.936;2023-02-18T02:08:30;96817.08;;;-1.62;100.0
64025;BME280;50266;57.446;26.936;2023-02-18T02:09:30;96815.78;;;-1.62;100.0
64025;BME280;50266;57.446;26.936;2023-02-18T02:10:42;96809.69;;;-1.59;100.0
64025;BME280;50266;57.446;26.936;2023-02-18T02:15:49;96804.25;;;-1.58;100.0
64025;BME280;50266;57.446;26.936;2023-02-18T02:25:17;96778.05;;;-1.53;100.0
64025;BME280;50266;57.446;26.936;2023-02-18T02:26:36;96777.14;;;-1.55;100.0
64025;BME280;50266;57.446;26.936;2023-02-18T02:27:34;96775.53;;;-1.56;100.0
64025;BME280;50266;57.446;26.936;2023-02-18T02:29:33;96774.34;;;-1.52;100.0
64025;BME280;50266;57.446;26.936;2023-02-18T02:30:35;96779.91;;;-1.51;100.0
64025;BME280;50266;57.446;26.936;2023-02-18T02:32:42;96762.42;;;-1.53;100.0
64025;BME280;50266;57.446;26.936;2023-02-18T02:35:48;96759.84;;;-1.52;100.0
64025;BME280;50266;57.446;26.936;2023-02-18T02:37:06;96758.02;;;-1.49;100.0
64025;BME280;50266;57.446;26.936;2023-02-18T02:37:53;96759.61;;;-1.5;100.0
64025;BME280;50266;57.446;26.936;2023-02-18T02:39:10;96761.26;;;-1.5;100.0
64025;BME280;50266;57.446;26.936;2023-02-18T02:40:15;96759.07;;;-1.5;100.0
64025;BME280;50266;57.446;26.936;2023-02-18T02:43:18;96748.38;;;-1.52;100.0
64025;BME280;50266;57.446;26.936;2023-02-18T02:44:19;96750.33;;;-1.52;100.0
64025;BME280;50266;57.446;26.936;2023-02-18T02:45:20;96745.14;;;-1.52;100.0
64025;BME280;50266;57.446;26.936;2023-02-18T02:46:22;96742.86;;;-1.53;100.0
64025;BME280;50266;57.446;26.936;2023-02-18T02:47:23;96739.42;;;-1.54;100.0
64025;BME280;50266;57.446;26.936;2023-02-18T02:50:25;96737.28;;;-1.53;100.0
64025;BME280;50266;57.446;26.936;2023-02-18T02:51:31;96743.07;;;-1.52;100.0
64025;BME280;50266;57.446;26.936;2023-02-18T02:52:30;96737.19;;;-1.53;100.0
64025;BME280;50266;57.446;26.936;2023-02-18T02:53:27;96735.66;;;-1.51;100.0
64025;BME280;50266;57.446;26.936;2023-02-18T02:54:27;96729.35;;;-1.52;100.0
64025;BME280;50266;57.446;26.936;2023-02-18T02:55:27;96727.31;;;-1.52;100.0
64025;BME280;50266;57.446;26.936;2023-02-18T02:56:27;96727.49;;;-1.5;100.0
64025;BME280;50266;57.446;26.936;2023-02-18T02:58:28;96727.3;;;-1.48;100.0
64025;BME280;50266;57.446;26.936;2023-02-18T02:59:28;96724.03;;;-1.47;100.0
64025;BME280;50266;57.446;26.936;2023-02-18T03:04:46;96711.94;;;-1.44;100.0
64025;BME280;50266;57.446;26.936;2023-02-18T03:06:01;96708.22;;;-1.41;100.0
64025;BME280;50266;57.446;26.936;2023-02-18T03:06:58;96708.55;;;-1.41;100.0
64025;BME280;50266;57.446;26.936;2023-02-18T03:08:07;96712.98;;;-1.4;100.0
64025;BME280;50266;57.446;26.936;2023-02-18T03:11:11;96695.45;;;-1.37;100.0
64025;BME280;50266;57.446;26.936;2023-02-18T03:13:15;96699.28;;;-1.39;100.0
64025;BME280;50266;57.446;26.936;2023-02-18T03:14:13;96705.05;;;-1.39;100.0
64025;BME280;50266;57.446;26.936;2023-02-18T03:15:19;96705.75;;;-1.36;100.0
64025;BME280;50266;57.446;26.936;2023-02-18T03:17:22;96700.97;;;-1.3;100.0
64025;BME280;50266;57.446;26.936;2023-02-18T03:18:30;96703.25;;;-1.3;100.0
64025;BME280;50266;57.446;26.936;2023-02-18T03:20:33;96692.55;;;-1.29;100.0
64025;BME280;50266;57.446;26.936;2023-02-18T03:21:32;96699.95;;;-1.26;100.0
64025;BME280;50266;57.446;26.936;2023-02-18T03:22:32;96692.56;;;-1.27;100.0
64025;BME280;50266;57.446;26.936;2023-02-18T03:23:33;96691.47;;;-1.28;100.0
64025;BME280;50266;57.446;26.936;2023-02-18T03:24:33;96692.7;;;-1.28;100.0
64025;BME280;50266;57.446;26.936;2023-02-18T03:25:32;96685.46;;;-1.26;100.0
64025;BME280;50266;57.446;26.936;2023-02-18T03:26:32;96681.0;;;-1.25;100.0
64025;BME280;50266;57.446;26.936;2023-02-18T03:27:33;96683.22;;;-1.22;100.0
64025;BME280;50266;57.446;26.936;2023-02-18T03:28:33;96683.84;;;-1.23;100.0
64025;BME280;50266;57.446;26.936;2023-02-18T03:29:33;96684.82;;;-1.23;100.0
64025;BME280;50266;57.446;26.936;2023-02-18T03:31:35;96682.1;;;-1.24;100.0
64025;BME280;50266;57.446;26.936;2023-02-18T03:32:35;96678.77;;;-1.26;100.0
64025;BME280;50266;57.446;26.936;2023-02-18T03:33:36;96672.02;;;-1.24;100.0
64025;BME280;50266;57.446;26.936;2023-02-18T03:34:37;96674.09;;;-1.25;100.0
64025;BME280;50266;57.446;26.936;2023-02-18T03:35:36;96674.97;;;-1.25;100.0
64025;BME280;50266;57.446;26.936;2023-02-18T03:36:35;96670.06;;;-1.24;100.0
64025;BME280;50266;57.446;26.936;2023-02-18T03:37:37;96668.34;;;-1.26;100.0
64025;BME280;50266;57.446;26.936;2023-02-18T03:38:37;96667.64;;;-1.26;100.0
64025;BME280;50266;57.446;26.936;2023-02-18T03:39:36;96665.41;;;-1.26;100.0
64025;BME280;50266;57.446;26.936;2023-02-18T03:40:35;96663.04;;;-1.26;100.0
64025;BME280;50266;57.446;26.936;2023-02-18T03:41:35;96659.37;;;-1.27;100.0
64025;BME280;50266;57.446;26.936;2023-02-18T03:42:35;96661.67;;;-1.26;100.0
64025;BME280;50266;57.446;26.936;2023-02-18T03:43:35;96657.12;;;-1.26;100.0
64025;BME280;50266;57.446;26.936;2023-02-18T03:44:35;96660.85;;;-1.26;100.0
64025;BME280;50266;57.446;26.936;2023-02-18T03:45:35;96661.31;;;-1.25;100.0
64025;BME280;50266;57.446;26.936;2023-02-18T03:46:36;96660.2;;;-1.26;100.0
64025;BME280;50266;57.446;26.936;2023-02-18T03:47:35;96660.55;;;-1.26;100.0
64025;BME280;50266;57.446;26.936;2023-02-18T03:48:35;96658.88;;;-1.25;100.0
64025;BME280;50266;57.446;26.936;2023-02-18T03:49:35;96644.31;;;-1.26;100.0
64025;BME280;50266;57.446;26.936;2023-02-18T03:50:36;96647.73;;;-1.25;100.0
64025;BME280;50266;57.446;26.936;2023-02-18T03:51:36;96647.19;;;-1.24;100.0
64025;BME280;50266;57.446;26.936;2023-02-18T03:52:36;96649.84;;;-1.25;100.0
64025;BME280;50266;57.446;26.936;2023-02-18T03:53:36;96653.25;;;-1.22;100.0
64025;BME280;50266;57.446;26.936;2023-02-18T03:54:36;96645.4;;;-1.24;100.0
64025;BME280;50266;57.446;26.936;2023-02-18T03:55:36;96651.27;;;-1.21;100.0
64025;BME280;50266;57.446;26.936;2023-02-18T03:56:36;96651.02;;;-1.21;100.0
64025;BME280;50266;57.446;26.936;2023-02-18T03:57:36;96646.27;;;-1.22;100.0
64025;BME280;50266;57.446;26.936;2023-02-18T03:58:36;96651.02;;;-1.21;100.0
64025;BME280;50266;57.446;26.936;2023-02-18T03:59:36;96651.31;;;-1.22;100.0
64025;BME280;50266;57.446;26.936;2023-02-18T04:00:36;96647.48;;;-1.22;100.0
64025;BME280;50266;57.446;26.936;2023-02-18T04:01:36;96641.23;;;-1.19;100.0
64025;BME280;50266;57.446;26.936;2023-02-18T04:02:36;96636.03;;;-1.21;100.0
64025;BME280;50266;57.446;26.936;2023-02-18T04:03:36;96635.59;;;-1.2;100.0
64025;BME280;50266;57.446;26.936;2023-02-18T04:04:36;96630.07;;;-1.2;100.0
64025;BME280;50266;57.446;26.936;2023-02-18T04:05:36;96635.69;;;-1.18;100.0
64025;BME280;50266;57.446;26.936;2023-02-18T04:06:36;96638.16;;;-1.15;100.0
64025;BME280;50266;57.446;26.936;2023-02-18T04:07:36;96644.41;;;-1.14;100.0
64025;BME280;50266;57.446;26.936;2023-02-18T04:08:36;96639.52;;;-1.12;100.0
64025;BME280;50266;57.446;26.936;2023-02-18T04:09:36;96635.05;;;-1.15;100.0
64025;BME280;50266;57.446;26.936;2023-02-18T04:10:36;96638.09;;;-1.11;100.0
64025;BME280;50266;57.446;26.936;2023-02-18T04:11:36;96637.17;;;-1.14;100.0
64025;BME280;50266;57.446;26.936;2023-02-18T04:12:36;96635.33;;;-1.13;100.0
64025;BME280;50266;57.446;26.936;2023-02-18T04:13:36;96631.45;;;-1.14;100.0
64025;BME280;50266;57.446;26.936;2023-02-18T04:14:36;96627.23;;;-1.12;100.0
64025;BME280;50266;57.446;26.936;2023-02-18T04:15:36;96629.27;;;-1.12;100.0
64025;BME280;50266;57.446;26.936;2023-02-18T04:16:36;96632.89;;;-1.09;100.0
64025;BME280;50266;57.446;26.936;2023-02-18T04:17:36;96624.67;;;-1.09;100.0
64025;BME280;50266;57.446;26.936;2023-02-18T04:18:36;96621.41;;;-1.11;100.0
64025;BME280;50266;57.446;26.936;2023-02-18T04:19:36;96622.38;;;-1.11;100.0
64025;BME280;50266;57.446;26.936;2023-02-18T04:20:36;96619.98;;;-1.1;100.0
64025;BME280;50266;57.446;26.936;2023-02-18T04:21:36;96616.33;;;-1.1;100.0
64025;BME280;50266;57.446;26.936;2023-02-18T04:22:36;96616.52;;;-1.09;100.0
64025;BME280;50266;57.446;26.936;2023-02-18T04:23:36;96616.11;;;-1.07;100.0
64025;BME280;50266;57.446;26.936;2023-02-18T04:24:36;96617.58;;;-1.09;100.0
64025;BME280;50266;57.446;26.936;2023-02-18T04:25:36;96612.02;;;-1.08;100.0
64025;BME280;50266;57.446;26.936;2023-02-18T04:26:36;96611.09;;;-1.08;100.0
64025;BME280;50266;57.446;26.936;2023-02-18T04:27:36;96616.88;;;-1.06;100.0
64025;BME280;50266;57.446;26.936;2023-02-18T04:28:36;96612.97;;;-1.08;100.0
64025;BME280;50266;57.446;26.936;2023-02-18T04:29:36;96615.83;;;-1.08;100.0
64025;BME280;50266;57.446;26.936;2023-02-18T04:30:36;96611.71;;;-1.07;100.0
64025;BME280;50266;57.446;26.936;2023-02-18T04:31:36;96609.39;;;-1.04;100.0
64025;BME280;50266;57.446;26.936;2023-02-18T04:32:36;96613.84;;;-1.02;100.0
64025;BME280;50266;57.446;26.936;2023-02-18T04:33:36;96614.73;;;-1.02;100.0
64025;BME280;50266;57.446;26.936;2023-02-18T04:34:36;96609.19;;;-1.02;100.0
64025;BME280;50266;57.446;26.936;2023-02-18T04:35:36;96606.19;;;-1.02;100.0
64025;BME280;50266;57.446;26.936;2023-02-18T04:36:36;96603.58;;;-1.02;100.0
64025;BME280;50266;57.446;26.936;2023-02-18T04:37:36;96602.97;;;-1.01;100.0
64025;BME280;50266;57.446;26.936;2023-02-18T04:38:36;96596.12;;;-1.01;100.0
64025;BME280;50266;57.446;26.936;2023-02-18T04:39:36;96597.78;;;-1.0;100.0
64025;BME280;50266;57.446;26.936;2023-02-18T04:40:36;96602.33;;;-1.03;100.0
64025;BME280;50266;57.446;26.936;2023-02-18T04:41:36;96594.89;;;-1.01;100.0
64025;BME280;50266;57.446;26.936;2023-02-18T04:42:36;96594.89;;;-1.04;100.0
64025;BME280;50266;57.446;26.936;2023-02-18T04:43:36;96593.05;;;-1.03;100.0
64025;BME280;50266;57.446;26.936;2023-02-18T04:44:36;96589.41;;;-1.05;100.0
64025;BME280;50266;57.446;26.936;2023-02-18T04:45:36;96591.56;;;-1.04;100.0
64025;BME280;50266;57.446;26.936;2023-02-18T04:46:36;96594.48;;;-1.01;100.0
64025;BME280;50266;57.446;26.936;2023-02-18T04:47:36;96588.32;;;-0.99;100.0
64025;BME280;50266;57.446;26.936;2023-02-18T04:48:36;96593.25;;;-1.05;100.0
64025;BME280;50266;57.446;26.936;2023-02-18T04:49:37;96596.08;;;-1.03;100.0
64025;BME280;50266;57.446;26.936;2023-02-18T04:50:37;96593.16;;;-1.05;100.0
64025;BME280;50266;57.446;26.936;2023-02-18T04:51:36;96591.62;;;-1.01;100.0
64025;BME280;50266;57.446;26.936;2023-02-18T04:52:36;96586.15;;;-1.05;100.0
64025;BME280;50266;57.446;26.936;2023-02-18T04:53:37;96584.79;;;-0.99;100.0
64025;BME280;50266;57.446;26.936;2023-02-18T04:54:37;96587.59;;;-0.98;100.0
64025;BME280;50266;57.446;26.936;2023-02-18T04:55:37;96586.72;;;-1.0;100.0
64025;BME280;50266;57.446;26.936;2023-02-18T04:56:37;96582.14;;;-1.0;100.0
64025;BME280;50266;57.446;26.936;2023-02-18T04:57:37;96582.44;;;-0.99;100.0
64025;BME280;50266;57.446;26.936;2023-02-18T04:58:37;96582.66;;;-0.98;100.0
64025;BME280;50266;57.446;26.936;2023-02-18T04:59:37;96593.98;;;-0.96;100.0
64025;BME280;50266;57.446;26.936;2023-02-18T05:00:37;96586.0;;;-0.96;100.0
64025;BME280;50266;57.446;26.936;2023-02-18T05:01:37;96587.93;;;-0.94;100.0
64025;BME280;50266;57.446;26.936;2023-02-18T05:02:37;96584.28;;;-0.92;100.0
64025;BME280;50266;57.446;26.936;2023-02-18T05:03:37;96581.69;;;-0.94;100.0
64025;BME280;50266;57.446;26.936;2023-02-18T05:04:37;96582.7;;;-0.91;100.0
64025;BME280;50266;57.446;26.936;2023-02-18T05:05:37;96584.58;;;-0.95;100.0
64025;BME280;50266;57.446;26.936;2023-02-18T05:06:37;96581.95;;;-0.95;100.0
64025;BME280;50266;57.446;26.936;2023-02-18T05:07:37;96583.13;;;-0.94;100.0
64025;BME280;50266;57.446;26.936;2023-02-18T05:08:37;96577.44;;;-0.92;100.0
64025;BME280;50266;57.446;26.936;2023-02-18T05:09:37;96576.52;;;-0.97;100.0
64025;BME280;50266;57.446;26.936;2023-02-18T05:10:37;96572.31;;;-0.96;100.0
64025;BME280;50266;57.446;26.936;2023-02-18T05:11:37;96575.3;;;-0.91;100.0
64025;BME280;50266;57.446;26.936;2023-02-18T05:12:37;96574.13;;;-0.91;100.0
64025;BME280;50266;57.446;26.936;2023-02-18T05:13:37;96571.91;;;-0.9;100.0
64025;BME280;50266;57.446;26.936;2023-02-18T05:14:37;96579.66;;;-0.92;100.0
64025;BME280;50266;57.446;26.936;2023-02-18T05:15:37;96570.95;;;-0.91;100.0
64025;BME280;50266;57.446;26.936;2023-02-18T05:16:37;96578.83;;;-0.9;100.0
64025;BME280;50266;57.446;26.936;2023-02-18T05:17:37;96580.42;;;-0.83;100.0
64025;BME280;50266;57.446;26.936;2023-02-18T05:18:37;96575.56;;;-0.86;100.0
64025;BME280;50266;57.446;26.936;2023-02-18T05:19:37;96574.17;;;-0.86;100.0
64025;BME280;50266;57.446;26.936;2023-02-18T05:20:37;96570.03;;;-0.86;100.0
64025;BME280;50266;57.446;26.936;2023-02-18T05:21:37;96575.8;;;-0.84;100.0
64025;BME280;50266;57.446;26.936;2023-02-18T05:22:37;96582.33;;;-0.81;100.0
64025;BME280;50266;57.446;26.936;2023-02-18T05:23:37;96574.55;;;-0.83;100.0
64025;BME280;50266;57.446;26.936;2023-02-18T05:24:37;96569.48;;;-0.8;100.0
64025;BME280;50266;57.446;26.936;2023-02-18T05:25:37;96569.1;;;-0.8;100.0
64025;BME280;50266;57.446;26.936;2023-02-18T05:26:37;96570.2;;;-0.81;100.0
64025;BME280;50266;57.446;26.936;2023-02-18T05:27:37;96567.01;;;-0.77;100.0
64025;BME280;50266;57.446;26.936;2023-02-18T05:28:37;96560.46;;;-0.76;100.0
64025;BME280;50266;57.446;26.936;2023-02-18T05:29:37;96562.53;;;-0.75;100.0
64025;BME280;50266;57.446;26.936;2023-02-18T05:30:37;96561.4;;;-0.77;100.0
64025;BME280;50266;57.446;26.936;2023-02-18T05:31:37;96557.57;;;-0.79;100.0
64025;BME280;50266;57.446;26.936;2023-02-18T05:32:37;96558.3;;;-0.75;100.0
64025;BME280;50266;57.446;26.936;2023-02-18T05:33:37;96561.77;;;-0.73;100.0
64025;BME280;50266;57.446;26.936;2023-02-18T05:34:37;96560.09;;;-0.73;100.0
64025;BME280;50266;57.446;26.936;2023-02-18T05:35:37;96563.53;;;-0.72;100.0
64025;BME280;50266;57.446;26.936;2023-02-18T05:36:37;96560.88;;;-0.71;100.0
64025;BME280;50266;57.446;26.936;2023-02-18T05:37:37;96558.35;;;-0.73;100.0
64025;BME280;50266;57.446;26.936;2023-02-18T05:38:37;96555.97;;;-0.72;100.0
64025;BME280;50266;57.446;26.936;2023-02-18T05:39:37;96555.67;;;-0.67;100.0
64025;BME280;50266;57.446;26.936;2023-02-18T05:40:37;96548.2;;;-0.7;100.0
64025;BME280;50266;57.446;26.936;2023-02-18T05:41:37;96551.94;;;-0.68;100.0
64025;BME280;50266;57.446;26.936;2023-02-18T05:42:37;96555.38;;;-0.7;100.0
64025;BME280;50266;57.446;26.936;2023-02-18T05:43:37;96556.55;;;-0.69;100.0
64025;BME280;50266;57.446;26.936;2023-02-18T05:44:37;96553.59;;;-0.68;100.0
64025;BME280;50266;57.446;26.936;2023-02-18T05:45:37;96555.81;;;-0.7;100.0
64025;BME280;50266;57.446;26.936;2023-02-18T05:46:37;96552.27;;;-0.64;100.0
64025;BME280;50266;57.446;26.936;2023-02-18T05:47:37;96546.42;;;-0.66;100.0
64025;BME280;50266;57.446;26.936;2023-02-18T05:48:37;96548.95;;;-0.64;100.0
64025;BME280;50266;57.446;26.936;2023-02-18T05:49:38;96548.55;;;-0.66;100.0
64025;BME280;50266;57.446;26.936;2023-02-18T05:50:38;96549.38;;;-0.65;100.0